Time;durP1;ratioP1;P1;durP2;ratioP2;P2;SDS_P1;SDS_P2;PMS_P1;PMS_P2;Temp;Humidity;BMP_temperature;BMP_pressure;BME280_temperature;BME280_humidity;BME280_pressure;Samples;Min_cycle;Max_cycle;Signal;HPM_P1;HPM_P2
2022/04/23 07:25:30;;;;;;;;;;;;;;;11.79;82.27;95207.88;4264668;27;10978;-70
2022/04/23 07:27:32;;;;;;;;;;;;;;;11.95;81.21;95213.22;4265943;27;5590;-69
2022/04/23 07:29:34;;;;;;;;;;;;;;;12.09;81.81;95205.75;4265466;27;5845;-69
2022/04/23 07:31:37;;;;;;;;;;;;;;;12.21;82.19;95197.72;4266208;27;5782;-70
2022/04/23 07:38:20;;;;;;;;;;;;;;;12.34;84.12;95202.69;4248853;27;6305;-70
2022/04/23 07:40:21;;;;;;;;;;;;;;;12.36;84.08;95210.41;4248694;27;5608;-70
2022/04/23 07:42:23;;;;;;;;;;;;;;;12.44;83.74;95202.84;4248891;27;5616;-69
2022/04/23 07:44:25;;;;;;;;;;;;;;;12.36;85.75;95207.75;4262546;27;5937;-69
2022/04/23 07:46:27;;;;;;;;;;;;;;;12.41;85.29;95213.13;4262206;27;7301;-67
2022/04/23 07:48:29;;;;;;;;;;;;;;;12.43;85.16;95217.13;4261189;27;5494;-69
2022/04/23 07:50:31;;;;;;;;;;;;;;;12.50;84.82;95232.88;4260153;27;5583;-66
2022/04/23 07:52:35;;;;;;;;;;;;;;;12.49;87.80;95236.59;4262307;27;5615;-67
2022/04/23 07:54:38;;;;;;;;;;;;;;;12.58;84.82;95229.81;4262239;27;5729;-67
2022/04/23 07:56:40;;;;;;;;;;;;;;;12.57;83.97;95227.41;4260474;27;5596;-67
2022/04/23 07:58:41;;;;;;;;;;;;;;;12.41;84.51;95229.03;4256941;27;5730;-67
2022/04/23 08:00:45;;;;;;;;;;;;;;;12.32;85.04;95225.19;4258436;27;5761;-67
2022/04/23 08:02:46;;;;;;;;;;;;;;;12.29;85.98;95215.88;4251906;27;5729;-66
2022/04/23 08:04:48;;;;;;;;;;;;;;;12.42;85.44;95222.69;4262586;27;5686;-67
2022/04/23 08:06:50;;;;;;;;;;;;;;;12.48;85.44;95216.44;4261779;27;5693;-67
2022/04/23 08:08:52;;;;;;;;;;;;;;;12.54;85.07;95218.09;4261238;27;5620;-66
2022/04/23 08:10:54;;;;;;;;;;;;;;;12.60;84.67;95216.31;4261297;27;5717;-67
2022/04/23 08:12:56;;;;;;;;;;;;;;;12.59;84.45;95214.72;4262417;27;5713;-66
2022/04/23 08:14:57;;;;;;;;;;;;;;;12.67;84.29;95220.38;4260515;27;5809;-67
2022/04/23 08:16:59;;;;;;;;;;;;;;;12.75;84.08;95229.78;4262059;27;6378;-67
2022/04/23 08:19:01;;;;;;;;;;;;;;;12.79;84.23;95223.72;4260686;27;5592;-67
2022/04/23 08:21:02;;;;;;;;;;;;;;;12.87;84.13;95219.88;4255664;27;5722;-67
2022/04/23 08:23:04;;;;;;;;;;;;;;;12.94;83.75;95217.03;4243808;27;5623;-67
2022/04/23 08:25:07;;;;;;;;;;;;;;;13.03;83.61;95210.28;4249565;27;5827;-68
2022/04/23 08:27:09;;;;;;;;;;;;;;;13.06;82.87;95215.88;4249072;27;5624;-67
2022/04/23 08:31:31;;;;;;;;;;;;;;;13.05;80.15;95197.56;4250055;27;5765;-68
2022/04/23 08:34:18;;;;;;;;;;;;;;;13.03;80.37;95194.34;4247499;27;5783;-66
2022/04/23 08:35:55;;;;;;;;;;;;;;;13.11;80.63;95202.66;4235489;27;5725;-67
2022/04/23 08:37:57;;;;;;;;;;;;;;;13.21;80.48;95202.00;4246583;27;5845;-67
2022/04/23 08:39:58;;;;;;;;;;;;;;;13.31;79.93;95218.06;4249676;27;5698;-67
2022/04/23 08:42:04;;;;;;;;;;;;;;;13.37;79.35;95217.06;4249933;27;5713;-67
2022/04/23 08:44:06;;;;;;;;;;;;;;;13.41;78.65;95228.00;4247929;27;5608;-69
2022/04/23 08:46:09;;;;;;;;;;;;;;;13.51;78.57;95222.00;4242587;27;5843;-67
2022/04/23 08:48:17;;;;;;;;;;;;;;;13.46;79.52;95225.38;4248174;27;5682;-68
2022/04/23 08:50:23;;;;;;;;;;;;;;;13.63;79.29;95220.00;4238567;27;5819;-71
2022/04/23 08:52:32;;;;;;;;;;;;;;;13.69;79.81;95218.97;4244653;27;7696;-72
2022/04/23 08:54:34;;;;;;;;;;;;;;;13.77;78.69;95207.91;4249562;27;5693;-67
2022/04/23 08:56:37;;;;;;;;;;;;;;;13.64;78.40;95216.28;4244249;27;5083;-67
2022/04/23 08:58:42;;;;;;;;;;;;;;;13.64;74.47;95218.94;4245669;27;5689;-68
2022/04/23 09:00:44;;;;;;;;;;;;;;;13.70;74.16;95223.22;4247267;27;5705;-66
2022/04/23 09:02:46;;;;;;;;;;;;;;;13.78;71.04;95233.41;4246331;27;5685;-67
2022/04/23 09:04:48;;;;;;;;;;;;;;;13.74;69.12;95234.97;4251153;27;5741;-67
2022/04/23 09:06:50;;;;;;;;;;;;;;;13.71;69.34;95224.88;4248985;27;5760;-62
2022/04/23 09:09:12;;;;;;;;;;;;;;;13.64;68.02;95229.56;4249727;27;6033;-66
2022/04/23 09:11:32;;;;;;;;;;;;;;;13.73;69.04;95224.59;4249149;27;6570;-66
2022/04/23 09:13:34;;;;;;;;;;;;;;;13.84;69.86;95221.00;4250033;27;5701;-66
2022/04/23 09:24:58;;;;;;;;;;;;;;;14.17;68.03;95198.69;4249816;27;5833;-66
2022/04/23 09:27:06;;;;;;;;;;;;;;;14.27;68.19;95204.91;4250156;27;5738;-66
2022/04/23 09:29:14;;;;;;;;;;;;;;;14.42;68.76;95206.06;4241441;27;6624;-67
2022/04/23 09:31:16;;;;;;;;;;;;;;;14.36;68.53;95205.19;4232968;28;6532;-67
2022/04/23 09:33:19;;;;;;;;;;;;;;;14.53;68.74;95203.25;4231702;28;5764;-66
2022/04/23 09:35:20;;;;;;;;;;;;;;;14.66;68.25;95201.97;4232945;28;5730;-66
2022/04/23 09:38:11;;;;;;;;;;;;;;;14.70;68.59;95208.38;4230627;28;5607;-66
2022/04/23 09:39:53;;;;;;;;;;;;;;;14.77;68.54;95218.81;4232879;28;5711;-66
2022/04/23 09:42:13;;;;;;;;;;;;;;;14.85;67.17;95215.66;4231589;28;6908;-67
2022/04/23 09:44:15;;;;;;;;;;;;;;;14.81;64.86;95223.34;4232553;27;5706;-67
2022/04/23 09:46:17;;;;;;;;;;;;;;;14.81;65.67;95222.53;4231374;28;6297;-67
2022/04/23 09:48:18;;;;;;;;;;;;;;;14.90;66.26;95221.00;4233069;27;5762;-67
2022/04/23 09:50:20;;;;;;;;;;;;;;;14.90;66.50;95222.88;4231623;28;5645;-67
2022/04/23 09:52:29;;;;;;;;;;;;;;;14.94;67.07;95224.72;4232625;28;5711;-67
2022/04/23 09:54:53;;;;;;;;;;;;;;;15.05;66.89;95228.25;4232706;28;5726;-67
2022/04/23 09:56:56;;;;;;;;;;;;;;;15.05;66.88;95233.56;4232581;28;5703;-67
2022/04/23 09:58:58;;;;;;;;;;;;;;;14.99;67.32;95237.28;4232597;28;5707;-67
2022/04/23 10:01:00;;;;;;;;;;;;;;;15.01;67.28;95230.63;4232333;28;5713;-67
2022/04/23 10:03:06;;;;;;;;;;;;;;;14.95;67.42;95231.69;4232329;28;5719;-67
2022/04/23 10:05:11;;;;;;;;;;;;;;;14.86;67.40;95241.22;4231226;28;5623;-67
2022/04/23 10:07:17;;;;;;;;;;;;;;;14.69;68.68;95243.22;4231304;28;5603;-67
2022/04/23 10:09:21;;;;;;;;;;;;;;;14.84;68.54;95240.66;4231192;28;5781;-67
2022/04/23 10:11:28;;;;;;;;;;;;;;;14.69;68.57;95238.69;4232398;28;5719;-67
2022/04/23 10:13:30;;;;;;;;;;;;;;;14.69;68.49;95248.53;4237705;27;5690;-67
2022/04/23 10:15:33;;;;;;;;;;;;;;;14.74;68.27;95257.38;4249488;27;6425;-67
2022/04/23 10:17:36;;;;;;;;;;;;;;;14.60;70.84;95261.50;4249277;27;5705;-67
2022/04/23 10:19:38;;;;;;;;;;;;;;;14.54;72.57;95278.50;4265052;27;6788;-65
2022/04/23 10:21:53;;;;;;;;;;;;;;;14.52;72.90;95285.94;4247905;27;6372;-66
2022/04/23 10:24:04;;;;;;;;;;;;;;;14.48;74.99;95295.44;4230612;28;5139;-66
2022/04/23 10:26:38;;;;;;;;;;;;;;;14.48;75.14;95306.09;4245807;27;5850;-66
2022/04/23 10:28:48;;;;;;;;;;;;;;;14.42;76.18;95315.06;4249249;27;5720;-66
2022/04/23 10:31:16;;;;;;;;;;;;;;;14.27;76.30;95323.72;4249212;27;5673;-66
2022/04/23 10:33:28;;;;;;;;;;;;;;;14.23;77.78;95319.94;4247662;27;5724;-66
2022/04/23 10:35:30;;;;;;;;;;;;;;;14.21;77.84;95322.84;4248329;27;5798;-66
2022/04/23 10:37:40;;;;;;;;;;;;;;;14.19;77.82;95311.66;4248973;27;5689;-66
2022/04/23 10:40:02;;;;;;;;;;;;;;;14.09;79.93;95313.41;4249218;27;5787;-66
2022/04/23 10:42:05;;;;;;;;;;;;;;;14.05;79.60;95302.50;4248980;27;5681;-66
2022/04/23 10:44:09;;;;;;;;;;;;;;;13.83;81.16;95299.88;4248892;27;5681;-66
2022/04/23 10:46:36;;;;;;;;;;;;;;;13.46;82.88;95270.50;4248632;27;5610;-66
2022/04/23 10:48:44;;;;;;;;;;;;;;;13.47;85.65;95250.06;4248578;27;5726;-66
2022/04/23 10:51:24;;;;;;;;;;;;;;;12.82;88.70;95217.97;4249233;27;5693;-66
2022/04/23 10:53:28;;;;;;;;;;;;;;;12.98;89.01;95247.31;4204932;28;5647;-67
2022/04/23 10:55:31;;;;;;;;;;;;;;;12.70;90.91;95251.75;4210748;28;5722;-66
2022/04/23 10:57:34;;;;;;;;;;;;;;;12.80;89.29;95253.72;4195797;28;5661;-66
2022/04/23 10:59:38;;;;;;;;;;;;;;;12.86;89.82;95251.94;4210082;28;5647;-67
2022/04/23 11:01:40;;;;;;;;;;;;;;;12.84;89.93;95244.22;4206955;28;6301;-67
2022/04/23 11:03:43;;;;;;;;;;;;;;;13.04;89.90;95225.94;4206043;28;5844;-67
2022/04/23 11:13:25;;;;;;;;;;;;;;;13.19;89.26;95221.88;4210122;28;5104;-68
2022/04/23 11:15:29;;;;;;;;;;;;;;;13.43;87.86;95222.44;4209154;28;5639;-73
2022/04/23 11:17:36;;;;;;;;;;;;;;;13.21;87.34;95215.28;4211521;28;5658;-65
2022/04/23 11:19:40;;;;;;;;;;;;;;;13.31;88.97;95199.47;4211846;28;5643;-69
2022/04/23 11:21:43;;;;;;;;;;;;;;;13.33;88.49;95192.06;4211734;28;5737;-67
2022/04/23 11:23:45;;;;;;;;;;;;;;;13.27;88.23;95186.97;4211300;28;5882;-65
2022/04/23 11:25:55;;;;;;;;;;;;;;;13.35;86.41;95183.84;4238124;27;5685;-65
2022/04/23 11:28:12;;;;;;;;;;;;;;;13.49;86.01;95181.63;4240672;27;5908;-66
2022/04/23 11:30:14;;;;;;;;;;;;;;;13.66;85.81;95185.75;4246852;27;5502;-66
2022/04/23 11:32:33;;;;;;;;;;;;;;;13.83;83.98;95177.69;4248468;27;7688;-66
2022/04/23 11:34:39;;;;;;;;;;;;;;;13.98;82.77;95185.78;4247080;27;5596;-66
2022/04/23 11:36:42;;;;;;;;;;;;;;;14.03;81.34;95189.53;4246555;27;5806;-67
2022/04/23 11:38:43;;;;;;;;;;;;;;;14.21;81.38;95178.53;4248548;27;5713;-67
2022/04/23 11:40:45;;;;;;;;;;;;;;;14.30;80.55;95177.00;4246883;27;5726;-67
2022/04/23 11:42:47;;;;;;;;;;;;;;;14.31;79.17;95169.81;4248440;27;5692;-67
2022/04/23 11:44:56;;;;;;;;;;;;;;;14.39;78.81;95158.72;4247464;27;5685;-67
2022/04/23 11:46:58;;;;;;;;;;;;;;;14.42;76.24;95168.84;4244145;27;5770;-67
2022/04/23 11:49:00;;;;;;;;;;;;;;;14.46;76.74;95164.63;4246438;27;5790;-67
2022/04/23 11:51:06;;;;;;;;;;;;;;;14.51;75.70;95173.44;4227923;27;5734;-67
2022/04/23 11:53:09;;;;;;;;;;;;;;;14.68;76.80;95175.13;4243752;27;5616;-67
2022/04/23 11:55:22;;;;;;;;;;;;;;;14.65;75.85;95178.31;4246942;27;5689;-68
2022/04/23 11:57:23;;;;;;;;;;;;;;;14.71;75.18;95170.09;4247136;27;5689;-68
2022/04/23 11:59:46;;;;;;;;;;;;;;;14.82;75.30;95171.72;4246596;27;5837;-68
2022/04/23 12:01:48;;;;;;;;;;;;;;;14.88;75.80;95169.91;4250265;27;5700;-68
2022/04/23 12:03:52;;;;;;;;;;;;;;;14.80;75.30;95165.06;4250337;27;5745;-68
2022/04/23 12:05:58;;;;;;;;;;;;;;;14.64;76.99;95158.09;4238618;27;5681;-67
2022/04/23 12:08:01;;;;;;;;;;;;;;;14.64;77.31;95172.19;4251776;27;5705;-67
2022/04/23 12:10:03;;;;;;;;;;;;;;;14.72;78.67;95176.19;4249599;27;5518;-67
2022/04/23 12:12:06;;;;;;;;;;;;;;;14.64;78.85;95176.72;4239223;27;6460;-67
2022/04/23 12:14:08;;;;;;;;;;;;;;;14.56;79.71;95184.09;4245567;27;5802;-67
2022/04/23 12:16:11;;;;;;;;;;;;;;;14.61;79.64;95182.53;4248497;27;5797;-67
2022/04/23 12:18:14;;;;;;;;;;;;;;;14.64;79.65;95179.38;4248104;27;5701;-67
2022/04/23 12:20:27;;;;;;;;;;;;;;;14.67;78.73;95176.19;4237570;27;5715;-67
2022/04/23 12:22:32;;;;;;;;;;;;;;;14.74;78.26;95172.25;4247534;27;5628;-67
2022/04/23 12:24:35;;;;;;;;;;;;;;;14.66;79.09;95179.91;4242690;27;5714;-67
2022/04/23 12:26:38;;;;;;;;;;;;;;;14.64;78.24;95188.16;4247773;27;5609;-67
2022/04/23 12:40:46;;;;;;;;;;;;;;;14.63;76.43;95153.84;4244360;27;5674;-63
2022/04/23 12:42:48;;;;;;;;;;;;;;;14.63;78.11;95145.84;4245581;27;5683;-63
2022/04/23 12:44:51;;;;;;;;;;;;;;;14.55;79.36;95133.84;4239850;27;5666;-64
2022/04/23 12:46:56;;;;;;;;;;;;;;;14.45;78.81;95121.28;4245812;27;5693;-66
2022/04/23 12:48:59;;;;;;;;;;;;;;;14.50;79.31;95129.31;4245993;27;5813;-68
2022/04/23 12:51:05;;;;;;;;;;;;;;;14.52;77.63;95134.38;4249119;27;5765;-69
2022/04/23 12:53:07;;;;;;;;;;;;;;;14.55;78.74;95136.50;4241609;27;5608;-68
2022/04/23 12:55:14;;;;;;;;;;;;;;;14.63;77.57;95141.34;4245766;27;5681;-68
2022/04/23 12:57:16;;;;;;;;;;;;;;;14.66;77.88;95129.38;4238469;27;5701;-66
2022/04/23 12:59:18;;;;;;;;;;;;;;;14.65;77.59;95122.47;4244442;27;5723;-72
2022/04/23 13:01:19;;;;;;;;;;;;;;;14.71;77.87;95124.06;4237036;27;5793;-74
2022/04/23 13:05:24;;;;;;;;;;;;;;;14.71;76.92;95092.16;4245946;27;5706;-72
2022/04/23 13:09:46;;;;;;;;;;;;;;;14.83;76.55;95095.38;4247497;27;5705;-67
2022/04/23 13:11:47;;;;;;;;;;;;;;;14.78;77.28;95106.03;4248662;27;5705;-67
2022/04/23 13:13:49;;;;;;;;;;;;;;;14.91;76.88;95097.53;4243632;27;5700;-67
2022/04/23 13:15:51;;;;;;;;;;;;;;;14.96;76.90;95075.50;4248207;27;5769;-68
2022/04/23 13:17:52;;;;;;;;;;;;;;;14.76;74.68;95076.22;4232176;27;5847;-69
2022/04/23 13:19:55;;;;;;;;;;;;;;;14.85;74.96;95072.00;4243998;27;5693;-68
2022/04/23 13:21:57;;;;;;;;;;;;;;;14.82;75.87;95067.97;4249145;27;5825;-68
2022/04/23 13:24:00;;;;;;;;;;;;;;;14.79;75.90;95067.72;4232560;27;5745;-67
2022/04/23 13:26:02;;;;;;;;;;;;;;;14.75;75.18;95064.00;4240790;27;5182;-71
2022/04/23 13:28:03;;;;;;;;;;;;;;;14.57;75.90;95075.88;4249120;27;7654;-70
2022/04/23 13:30:06;;;;;;;;;;;;;;;14.55;76.62;95065.50;4237538;27;5776;-76
2022/04/23 13:32:08;;;;;;;;;;;;;;;14.74;76.06;95065.06;4251918;27;5714;-80
2022/04/23 13:34:09;;;;;;;;;;;;;;;14.61;74.87;95076.16;4248896;27;5760;-79
2022/04/23 13:36:12;;;;;;;;;;;;;;;14.51;75.79;95077.72;4248163;27;5788;-76
2022/04/23 13:38:16;;;;;;;;;;;;;;;14.69;75.82;95094.28;4246837;27;5689;-69
2022/04/23 13:40:19;;;;;;;;;;;;;;;14.61;75.93;95105.41;4242580;27;5701;-73
2022/04/23 13:42:26;;;;;;;;;;;;;;;14.59;76.48;95104.88;4248791;27;6581;-77
2022/04/23 13:44:28;;;;;;;;;;;;;;;14.47;78.05;95110.38;4247300;27;5705;-78
2022/04/23 13:46:34;;;;;;;;;;;;;;;14.66;77.43;95111.56;4251827;27;5676;-76
2022/04/23 13:48:36;;;;;;;;;;;;;;;14.81;77.04;95114.28;4243408;27;5709;-72
2022/04/23 13:50:37;;;;;;;;;;;;;;;14.91;76.76;95108.19;4248795;27;5839;-73
2022/04/23 13:52:39;;;;;;;;;;;;;;;14.97;76.32;95091.19;4249644;27;5817;-81
2022/04/23 13:54:41;;;;;;;;;;;;;;;15.02;76.34;95077.09;4249287;27;5741;-72
2022/04/23 13:56:43;;;;;;;;;;;;;;;15.08;76.77;95071.53;4250061;27;5794;-72
2022/04/23 13:58:45;;;;;;;;;;;;;;;15.11;77.03;95057.69;4248812;27;5826;-73
2022/04/23 14:00:47;;;;;;;;;;;;;;;15.10;78.36;95060.63;4247907;27;5615;-73
2022/04/23 14:10:04;;;;;;;;;;;;;;;14.96;76.84;95044.38;4249835;27;5692;-79
2022/04/23 14:12:06;;;;;;;;;;;;;;;15.13;75.45;95039.59;4248862;27;5605;-78
2022/04/23 14:14:09;;;;;;;;;;;;;;;15.19;70.72;95039.63;4250098;27;5494;-72
2022/04/23 14:16:11;;;;;;;;;;;;;;;15.28;72.69;95038.00;4250808;27;6335;-76
2022/04/23 14:18:13;;;;;;;;;;;;;;;15.34;71.61;95028.97;4250689;27;5677;-76
2022/04/23 14:20:17;;;;;;;;;;;;;;;15.23;71.57;95027.38;4246205;27;5710;-76
2022/04/23 14:22:19;;;;;;;;;;;;;;;15.23;71.95;95022.84;4251275;27;5595;-75
2022/04/23 14:24:20;;;;;;;;;;;;;;;15.35;72.50;95027.91;4249876;27;6347;-68
2022/04/23 14:26:22;;;;;;;;;;;;;;;15.39;72.16;95029.75;4251454;27;5619;-67
2022/04/23 14:28:24;;;;;;;;;;;;;;;15.42;70.35;95018.59;4245765;27;5514;-69
2022/04/23 14:30:25;;;;;;;;;;;;;;;15.42;70.78;95009.81;4248309;27;5689;-74
2022/04/23 14:32:27;;;;;;;;;;;;;;;15.39;70.93;95005.00;4249958;27;6151;-74
2022/04/23 14:34:29;;;;;;;;;;;;;;;15.39;71.31;95013.78;4266210;27;5586;-69
2022/04/23 14:36:31;;;;;;;;;;;;;;;15.44;70.59;95013.00;4250543;27;6304;-68
2022/04/23 14:38:37;;;;;;;;;;;;;;;15.54;69.63;95021.00;4250735;27;5078;-70
2022/04/23 14:40:39;;;;;;;;;;;;;;;15.47;68.30;95025.78;4249705;27;5832;-71
2022/04/23 14:42:41;;;;;;;;;;;;;;;15.10;68.87;95021.50;4247774;27;5765;-72
2022/04/23 14:44:43;;;;;;;;;;;;;;;15.07;67.47;95027.34;4249508;27;5603;-72
2022/04/23 14:46:45;;;;;;;;;;;;;;;15.09;69.24;95027.88;4251366;27;5705;-75
2022/04/23 14:48:50;;;;;;;;;;;;;;;15.16;67.61;95024.94;4249402;27;5666;-77
2022/04/23 14:53:12;;;;;;;;;;;;;;;15.31;69.58;95009.00;4250767;27;5523;-78
2022/04/23 14:55:14;;;;;;;;;;;;;;;15.39;69.20;95011.13;4251289;27;5598;-76
2022/04/23 14:57:15;;;;;;;;;;;;;;;15.54;69.10;94993.56;4238374;27;5707;-75
2022/04/23 14:59:17;;;;;;;;;;;;;;;15.54;68.69;94983.69;4247237;27;5950;-73
2022/04/23 15:01:20;;;;;;;;;;;;;;;15.70;68.98;94985.31;4249559;27;5634;-71
2022/04/23 15:03:22;;;;;;;;;;;;;;;15.69;68.66;94986.38;4248783;27;5823;-66
2022/04/23 15:05:24;;;;;;;;;;;;;;;15.69;68.44;94986.38;4249569;27;5770;-69
2022/04/23 15:07:26;;;;;;;;;;;;;;;15.64;68.77;94985.59;4249495;27;5674;-69
2022/04/23 15:09:29;;;;;;;;;;;;;;;15.61;69.43;94980.78;4248184;27;6303;-69
2022/04/23 15:11:31;;;;;;;;;;;;;;;15.59;70.31;94950.94;4247829;27;7076;-66
2022/04/23 15:13:35;;;;;;;;;;;;;;;15.54;71.09;94925.13;4248198;27;5510;-67
2022/04/23 15:15:38;;;;;;;;;;;;;;;15.50;71.04;94928.56;4249196;27;5713;-67
2022/04/23 15:17:39;;;;;;;;;;;;;;;15.38;70.36;94926.97;4250057;27;5591;-68
2022/04/23 15:19:41;;;;;;;;;;;;;;;15.27;71.18;94919.28;4249284;27;5649;-69
2022/04/23 15:21:43;;;;;;;;;;;;;;;15.27;71.12;94911.28;4244170;27;5589;-69
2022/04/23 15:23:44;;;;;;;;;;;;;;;15.28;71.25;94899.56;4250334;27;6312;-69
2022/04/23 15:25:46;;;;;;;;;;;;;;;15.29;70.42;94899.34;4251640;27;7623;-69
2022/04/23 15:27:54;;;;;;;;;;;;;;;15.09;70.11;94892.16;4249530;27;7679;-69
2022/04/23 15:29:58;;;;;;;;;;;;;;;15.04;71.57;94876.19;4250038;27;5693;-69
2022/04/23 15:31:59;;;;;;;;;;;;;;;15.15;70.41;94864.47;4247318;27;5587;-70
2022/04/23 15:34:01;;;;;;;;;;;;;;;15.14;69.79;94848.75;4246397;27;5772;-67
2022/04/23 15:36:03;;;;;;;;;;;;;;;15.10;70.67;94848.50;4251928;27;5689;-65
2022/04/23 15:38:06;;;;;;;;;;;;;;;15.02;70.69;94851.72;4253273;27;5791;-65
2022/04/23 15:40:08;;;;;;;;;;;;;;;15.13;71.24;94850.63;4252907;27;5491;-66
2022/04/23 15:42:10;;;;;;;;;;;;;;;15.23;70.64;94843.69;4253021;27;6311;-62
2022/04/23 15:44:11;;;;;;;;;;;;;;;15.33;69.36;94838.34;4249525;27;5773;-61
2022/04/23 15:46:13;;;;;;;;;;;;;;;15.32;68.63;94821.59;4251753;27;5677;-62
2022/04/23 15:48:15;;;;;;;;;;;;;;;15.39;68.30;94819.41;4253605;27;5615;-63
2022/04/23 15:50:16;;;;;;;;;;;;;;;15.49;67.58;94802.63;4249028;27;5590;-63
2022/04/23 15:52:21;;;;;;;;;;;;;;;15.48;68.17;94801.03;4251076;27;5613;-65
2022/04/23 15:54:23;;;;;;;;;;;;;;;15.25;66.16;94814.94;4249772;27;5780;-63
2022/04/23 15:56:25;;;;;;;;;;;;;;;15.24;66.37;94798.16;4254886;27;5657;-68
2022/04/23 15:58:26;;;;;;;;;;;;;;;15.24;66.56;94800.03;4249214;27;5611;-69
2022/04/23 16:00:28;;;;;;;;;;;;;;;15.31;66.45;94797.91;4247716;27;5721;-74
2022/04/23 16:02:30;;;;;;;;;;;;;;;15.09;66.47;94791.03;4247214;27;6311;-72
2022/04/23 16:04:32;;;;;;;;;;;;;;;15.03;66.36;94802.75;4252967;27;5654;-77
2022/04/23 16:06:34;;;;;;;;;;;;;;;14.89;66.92;94783.09;4250575;27;6454;-75
2022/04/23 16:08:37;;;;;;;;;;;;;;;14.88;67.24;94776.16;4249214;27;5697;-75
2022/04/23 16:10:40;;;;;;;;;;;;;;;14.70;67.18;94779.38;4245875;27;5809;-73
2022/04/23 16:12:41;;;;;;;;;;;;;;;14.94;67.36;94787.59;4249277;27;5609;-73
2022/04/23 16:14:43;;;;;;;;;;;;;;;15.05;67.19;94781.97;4247164;27;5753;-75
2022/04/23 16:17:04;;;;;;;;;;;;;;;14.89;66.83;94780.41;4247723;27;5733;-76
2022/04/23 16:19:06;;;;;;;;;;;;;;;14.76;66.70;94783.63;4249707;27;5517;-75
2022/04/23 16:21:08;;;;;;;;;;;;;;;14.78;66.53;94768.19;4250048;27;5688;-75
2022/04/23 16:23:11;;;;;;;;;;;;;;;14.65;66.67;94763.44;4248476;27;5617;-70
2022/04/23 16:25:12;;;;;;;;;;;;;;;14.62;66.83;94756.00;4248066;27;5796;-70
2022/04/23 16:27:14;;;;;;;;;;;;;;;14.66;67.07;94759.72;4247662;27;5613;-72
2022/04/23 16:29:15;;;;;;;;;;;;;;;14.61;67.14;94746.41;4248344;27;5690;-72
2022/04/23 16:31:18;;;;;;;;;;;;;;;14.60;67.29;94760.75;4248426;27;5693;-71
2022/04/23 16:33:20;;;;;;;;;;;;;;;14.61;67.46;94749.88;4248603;27;6416;-71
2022/04/23 16:35:22;;;;;;;;;;;;;;;14.45;67.90;94749.09;4248626;27;5732;-71
2022/04/23 16:46:44;;;;;;;;;;;;;;;14.44;67.63;94736.03;4249427;27;5673;-69
2022/04/23 16:48:51;;;;;;;;;;;;;;;14.39;67.86;94739.50;4244069;27;5696;-70
2022/04/23 16:50:54;;;;;;;;;;;;;;;14.40;67.99;94745.63;4249681;27;5735;-76
2022/04/23 16:52:55;;;;;;;;;;;;;;;14.52;67.96;94733.66;4248107;27;5318;-70
2022/04/23 16:54:58;;;;;;;;;;;;;;;14.50;67.42;94735.81;4246786;27;7699;-70
2022/04/23 16:56:59;;;;;;;;;;;;;;;14.50;67.78;94730.50;4248792;27;5807;-69
2022/04/23 16:59:01;;;;;;;;;;;;;;;14.59;66.98;94722.75;4249322;27;5760;-70
2022/04/23 17:01:02;;;;;;;;;;;;;;;14.65;66.45;94726.22;4248248;27;5687;-69
2022/04/23 17:03:04;;;;;;;;;;;;;;;14.66;65.94;94720.63;4230498;27;5632;-70
2022/04/23 17:05:07;;;;;;;;;;;;;;;14.63;65.98;94710.53;4246081;27;5710;-70
2022/04/23 17:07:09;;;;;;;;;;;;;;;14.44;66.12;94710.28;4245254;27;5839;-69
2022/04/23 17:09:12;;;;;;;;;;;;;;;14.51;66.38;94708.16;4247179;27;5118;-69
2022/04/23 17:11:13;;;;;;;;;;;;;;;14.59;65.79;94692.69;4245365;27;5835;-70
2022/04/23 17:13:15;;;;;;;;;;;;;;;14.54;65.67;94702.28;4245236;27;5689;-70
2022/04/23 17:15:17;;;;;;;;;;;;;;;14.53;65.38;94700.69;4249003;27;5693;-68
2022/04/23 17:17:19;;;;;;;;;;;;;;;14.54;65.49;94704.16;4243818;27;5700;-69
2022/04/23 17:19:20;;;;;;;;;;;;;;;14.44;65.77;94699.63;4249109;27;5113;-70
2022/04/23 17:21:22;;;;;;;;;;;;;;;14.48;65.28;94684.75;4244563;27;5693;-72
2022/04/23 17:23:25;;;;;;;;;;;;;;;14.45;65.35;94679.97;4246105;27;5697;-70
2022/04/23 17:25:27;;;;;;;;;;;;;;;14.52;64.88;94680.50;4242385;27;5733;-70
2022/04/23 17:27:29;;;;;;;;;;;;;;;14.43;65.16;94689.25;4251007;27;5574;-70
2022/04/23 17:29:31;;;;;;;;;;;;;;;14.38;65.43;94684.72;4248611;27;5791;-70
2022/04/23 17:31:33;;;;;;;;;;;;;;;14.33;65.48;94671.44;4246262;27;5672;-70
2022/04/23 17:33:35;;;;;;;;;;;;;;;14.38;65.29;94674.09;4249154;27;5863;-69
2022/04/23 17:35:36;;;;;;;;;;;;;;;14.44;65.37;94667.75;4245700;27;5770;-70
2022/04/23 17:37:38;;;;;;;;;;;;;;;14.40;65.00;94664.00;4248991;27;5689;-68
2022/04/23 17:39:40;;;;;;;;;;;;;;;14.30;65.75;94664.00;4250016;27;5718;-69
2022/04/23 17:41:50;;;;;;;;;;;;;;;14.23;65.70;94648.34;4247093;27;5841;-68
2022/04/23 17:43:52;;;;;;;;;;;;;;;14.23;66.26;94660.81;4249258;27;6664;-67
2022/04/23 17:45:54;;;;;;;;;;;;;;;14.29;65.86;94654.44;4248582;27;5767;-69
2022/04/23 17:47:56;;;;;;;;;;;;;;;14.11;66.01;94652.34;4245669;27;5816;-66
2022/04/23 17:49:58;;;;;;;;;;;;;;;14.07;66.29;94661.91;4241316;27;5865;-67
2022/04/23 17:51:59;;;;;;;;;;;;;;;14.18;66.21;94652.88;4247774;27;5686;-71
2022/04/23 17:54:01;;;;;;;;;;;;;;;14.04;66.50;94660.56;4244199;27;5730;-71
2022/04/23 17:56:03;;;;;;;;;;;;;;;14.09;66.40;94662.44;4247657;27;5770;-73
2022/04/23 17:58:05;;;;;;;;;;;;;;;14.03;66.41;94644.88;4248873;27;5741;-73
2022/04/23 18:07:26;;;;;;;;;;;;;;;14.06;66.36;94649.69;4203142;28;7714;-73
2022/04/23 18:09:29;;;;;;;;;;;;;;;13.95;66.68;94649.69;4212637;28;5750;-72
2022/04/23 18:11:30;;;;;;;;;;;;;;;13.97;66.93;94646.78;4213323;28;5635;-72
2022/04/23 18:13:33;;;;;;;;;;;;;;;13.98;66.70;94654.47;4212797;28;5651;-69
2022/04/23 18:15:34;;;;;;;;;;;;;;;13.90;67.15;94655.00;4211998;28;5706;-76
2022/04/23 18:17:37;;;;;;;;;;;;;;;13.83;67.37;94646.50;4212098;28;6289;-70
2022/04/23 18:19:40;;;;;;;;;;;;;;;13.90;67.38;94654.19;4216026;28;5635;-69
2022/04/23 18:21:42;;;;;;;;;;;;;;;13.89;67.05;94648.09;4212481;28;5654;-71
2022/04/23 18:23:44;;;;;;;;;;;;;;;13.91;67.34;94655.78;4213923;28;5719;-81
2022/04/23 18:25:45;;;;;;;;;;;;;;;13.85;67.69;94641.72;4218714;28;5620;-73
2022/04/23 18:27:47;;;;;;;;;;;;;;;13.81;67.32;94653.91;4213478;28;5665;-74
2022/04/23 18:29:50;;;;;;;;;;;;;;;13.74;67.67;94652.59;4212734;28;5651;-75
2022/04/23 18:31:53;;;;;;;;;;;;;;;13.79;67.44;94644.63;4211250;28;5638;-74
2022/04/23 18:33:55;;;;;;;;;;;;;;;13.84;67.24;94637.47;4209791;28;5819;-78
2022/04/23 18:35:56;;;;;;;;;;;;;;;13.85;67.17;94632.97;4215824;28;5616;-74
2022/04/23 18:37:58;;;;;;;;;;;;;;;13.85;67.37;94628.44;4246633;27;5830;-70
2022/04/23 18:40:00;;;;;;;;;;;;;;;13.78;67.50;94635.88;4241507;27;7725;-75
2022/04/23 18:42:03;;;;;;;;;;;;;;;13.82;67.48;94628.19;4247612;27;5698;-73
2022/04/23 18:44:05;;;;;;;;;;;;;;;13.69;67.83;94634.78;4248726;27;5815;-69
2022/04/23 18:46:07;;;;;;;;;;;;;;;13.71;67.71;94635.34;4247948;27;5705;-67
2022/04/23 18:48:08;;;;;;;;;;;;;;;13.76;67.51;94630.03;4245933;27;5606;-77
2022/04/23 18:50:11;;;;;;;;;;;;;;;13.73;67.79;94629.78;4250168;27;5594;-78
2022/04/23 18:52:13;;;;;;;;;;;;;;;13.78;67.38;94627.09;4248260;27;5601;-75
2022/04/23 18:54:14;;;;;;;;;;;;;;;13.67;67.58;94631.63;4249339;27;5729;-81
2022/04/23 18:56:16;;;;;;;;;;;;;;;13.69;67.56;94626.81;4243974;27;5722;-78
2022/04/23 18:58:18;;;;;;;;;;;;;;;13.68;67.80;94633.19;4242257;27;5682;-79
2022/04/23 19:00:20;;;;;;;;;;;;;;;13.68;67.59;94638.50;4251221;27;5610;-80
2022/04/23 19:02:22;;;;;;;;;;;;;;;13.58;68.08;94641.94;4246647;27;5713;-74
2022/04/23 19:04:24;;;;;;;;;;;;;;;13.66;67.64;94635.34;4229004;28;5667;-71
2022/04/23 19:06:26;;;;;;;;;;;;;;;13.62;67.98;94624.44;4244722;27;5689;-70
2022/04/23 19:08:28;;;;;;;;;;;;;;;13.61;68.01;94632.69;4244167;27;5784;-78
2022/04/23 19:10:30;;;;;;;;;;;;;;;13.56;68.14;94646.72;4247385;27;5698;-73
2022/04/23 19:12:32;;;;;;;;;;;;;;;13.61;68.00;94659.22;4248425;27;5771;-73
2022/04/23 19:14:35;;;;;;;;;;;;;;;13.46;68.35;94656.53;4246095;27;5709;-74
2022/04/23 19:16:38;;;;;;;;;;;;;;;13.48;68.71;94665.03;4245855;27;5664;-72
2022/04/23 19:18:40;;;;;;;;;;;;;;;13.46;68.68;94677.78;4247416;27;6364;-76
2022/04/23 19:27:44;;;;;;;;;;;;;;;13.18;69.24;94687.75;4248378;27;5879;-68
2022/04/23 19:29:46;;;;;;;;;;;;;;;13.22;69.68;94698.66;4247570;27;5756;-69
2022/04/23 19:31:48;;;;;;;;;;;;;;;13.24;69.34;94692.03;4244190;27;5105;-70